sensor_id;sensor_type;location;lat;lon;timestamp;P1;durP1;ratioP1;P2;durP2;ratioP2
17363;SDS011;8799;43.594;13.526;2022-08-19T00:00:26;11.30;;;4.97;;
17363;SDS011;8799;43.594;13.526;2022-08-19T00:02:55;11.17;;;4.23;;
17363;SDS011;8799;43.594;13.526;2022-08-19T00:05:23;7.97;;;4.17;;
17363;SDS011;8799;43.594;13.526;2022-08-19T00:07:51;10.80;;;4.70;;
17363;SDS011;8799;43.594;13.526;2022-08-19T00:10:19;7.43;;;4.37;;
17363;SDS011;8799;43.594;13.526;2022-08-19T00:12:47;12.43;;;4.03;;
17363;SDS011;8799;43.594;13.526;2022-08-19T00:15:20;7.77;;;3.67;;
17363;SDS011;8799;43.594;13.526;2022-08-19T00:17:54;7.73;;;4.13;;
17363;SDS011;8799;43.594;13.526;2022-08-19T00:20:22;11.50;;;5.17;;
17363;SDS011;8799;43.594;13.526;2022-08-19T00:22:50;7.30;;;3.80;;
17363;SDS011;8799;43.594;13.526;2022-08-19T00:25:18;9.93;;;4.00;;
17363;SDS011;8799;43.594;13.526;2022-08-19T00:27:47;7.77;;;3.90;;
17363;SDS011;8799;43.594;13.526;2022-08-19T00:30:14;10.40;;;4.20;;
17363;SDS011;8799;43.594;13.526;2022-08-19T00:32:44;9.90;;;4.07;;
17363;SDS011;8799;43.594;13.526;2022-08-19T00:35:15;9.90;;;3.50;;
17363;SDS011;8799;43.594;13.526;2022-08-19T00:37:43;7.97;;;4.10;;
17363;SDS011;8799;43.594;13.526;2022-08-19T00:40:12;8.90;;;4.47;;
17363;SDS011;8799;43.594;13.526;2022-08-19T00:42:41;9.53;;;4.07;;
17363;SDS011;8799;43.594;13.526;2022-08-19T00:45:11;12.40;;;4.57;;
17363;SDS011;8799;43.594;13.526;2022-08-19T00:47:44;11.50;;;4.40;;
17363;SDS011;8799;43.594;13.526;2022-08-19T00:50:12;8.43;;;3.97;;
17363;SDS011;8799;43.594;13.526;2022-08-19T00:52:43;11.37;;;4.13;;
17363;SDS011;8799;43.594;13.526;2022-08-19T00:55:16;10.77;;;3.90;;
17363;SDS011;8799;43.594;13.526;2022-08-19T00:57:48;10.53;;;4.07;;
17363;SDS011;8799;43.594;13.526;2022-08-19T01:00:21;8.77;;;3.77;;
17363;SDS011;8799;43.594;13.526;2022-08-19T01:02:52;9.73;;;3.60;;
17363;SDS011;8799;43.594;13.526;2022-08-19T01:05:21;10.17;;;4.13;;
17363;SDS011;8799;43.594;13.526;2022-08-19T01:07:52;17.00;;;3.70;;
17363;SDS011;8799;43.594;13.526;2022-08-19T01:10:23;14.50;;;3.83;;
17363;SDS011;8799;43.594;13.526;2022-08-19T01:12:52;12.57;;;3.33;;
17363;SDS011;8799;43.594;13.526;2022-08-19T01:15:23;9.27;;;4.13;;
17363;SDS011;8799;43.594;13.526;2022-08-19T01:17:57;10.80;;;3.37;;
17363;SDS011;8799;43.594;13.526;2022-08-19T01:20:28;15.17;;;3.37;;
17363;SDS011;8799;43.594;13.526;2022-08-19T01:22:58;12.10;;;3.00;;
17363;SDS011;8799;43.594;13.526;2022-08-19T01:25:26;17.57;;;3.17;;
17363;SDS011;8799;43.594;13.526;2022-08-19T01:27:58;14.07;;;3.13;;
17363;SDS011;8799;43.594;13.526;2022-08-19T01:30:27;5.87;;;2.53;;
17363;SDS011;8799;43.594;13.526;2022-08-19T01:32:57;13.47;;;3.53;;
17363;SDS011;8799;43.594;13.526;2022-08-19T01:35:26;12.07;;;2.97;;
17363;SDS011;8799;43.594;13.526;2022-08-19T01:37:59;14.07;;;2.87;;
17363;SDS011;8799;43.594;13.526;2022-08-19T01:40:33;12.20;;;2.77;;
17363;SDS011;8799;43.594;13.526;2022-08-19T01:43:03;14.63;;;3.43;;
17363;SDS011;8799;43.594;13.526;2022-08-19T01:45:32;13.10;;;3.17;;
17363;SDS011;8799;43.594;13.526;2022-08-19T01:48:01;15.50;;;2.60;;
17363;SDS011;8799;43.594;13.526;2022-08-19T01:50:29;11.33;;;2.70;;
17363;SDS011;8799;43.594;13.526;2022-08-19T01:53:00;12.53;;;3.07;;
17363;SDS011;8799;43.594;13.526;2022-08-19T01:55:30;12.00;;;2.70;;
17363;SDS011;8799;43.594;13.526;2022-08-19T01:57:59;15.13;;;3.57;;
17363;SDS011;8799;43.594;13.526;2022-08-19T02:00:31;10.37;;;2.40;;
17363;SDS011;8799;43.594;13.526;2022-08-19T02:02:59;6.90;;;2.30;;
17363;SDS011;8799;43.594;13.526;2022-08-19T02:05:35;8.60;;;2.67;;
17363;SDS011;8799;43.594;13.526;2022-08-19T02:08:05;10.83;;;2.47;;
17363;SDS011;8799;43.594;13.526;2022-08-19T02:10:37;11.27;;;2.80;;
17363;SDS011;8799;43.594;13.526;2022-08-19T02:13:10;10.83;;;2.83;;
17363;SDS011;8799;43.594;13.526;2022-08-19T02:15:39;8.60;;;2.13;;
17363;SDS011;8799;43.594;13.526;2022-08-19T02:18:08;17.07;;;2.90;;
17363;SDS011;8799;43.594;13.526;2022-08-19T02:20:37;12.20;;;3.20;;
17363;SDS011;8799;43.594;13.526;2022-08-19T02:23:07;14.03;;;2.90;;
17363;SDS011;8799;43.594;13.526;2022-08-19T02:25:36;10.23;;;3.40;;
17363;SDS011;8799;43.594;13.526;2022-08-19T02:28:07;8.80;;;2.40;;
17363;SDS011;8799;43.594;13.526;2022-08-19T02:30:35;11.50;;;2.63;;
17363;SDS011;8799;43.594;13.526;2022-08-19T02:33:03;12.43;;;2.97;;
17363;SDS011;8799;43.594;13.526;2022-08-19T02:35:31;11.40;;;2.93;;
17363;SDS011;8799;43.594;13.526;2022-08-19T02:37:59;11.67;;;2.40;;
17363;SDS011;8799;43.594;13.526;2022-08-19T02:40:49;10.10;;;2.40;;
17363;SDS011;8799;43.594;13.526;2022-08-19T02:43:19;12.63;;;3.17;;
17363;SDS011;8799;43.594;13.526;2022-08-19T02:45:48;7.13;;;2.10;;
17363;SDS011;8799;43.594;13.526;2022-08-19T02:48:17;12.70;;;2.50;;
17363;SDS011;8799;43.594;13.526;2022-08-19T02:50:48;12.57;;;2.93;;
17363;SDS011;8799;43.594;13.526;2022-08-19T02:53:20;14.77;;;2.70;;
17363;SDS011;8799;43.594;13.526;2022-08-19T02:55:50;11.03;;;3.70;;
17363;SDS011;8799;43.594;13.526;2022-08-19T02:58:19;13.37;;;3.27;;
17363;SDS011;8799;43.594;13.526;2022-08-19T03:00:49;8.57;;;2.80;;
17363;SDS011;8799;43.594;13.526;2022-08-19T03:03:19;11.03;;;2.67;;
17363;SDS011;8799;43.594;13.526;2022-08-19T03:05:47;8.60;;;2.23;;
17363;SDS011;8799;43.594;13.526;2022-08-19T03:08:15;8.43;;;2.30;;
17363;SDS011;8799;43.594;13.526;2022-08-19T03:10:46;10.00;;;2.50;;
17363;SDS011;8799;43.594;13.526;2022-08-19T03:13:17;8.73;;;2.30;;
17363;SDS011;8799;43.594;13.526;2022-08-19T03:15:46;6.33;;;1.97;;
17363;SDS011;8799;43.594;13.526;2022-08-19T03:18:15;5.67;;;1.70;;
17363;SDS011;8799;43.594;13.526;2022-08-19T03:20:44;6.03;;;1.93;;
17363;SDS011;8799;43.594;13.526;2022-08-19T03:23:14;8.27;;;1.97;;
17363;SDS011;8799;43.594;13.526;2022-08-19T03:25:46;10.03;;;1.70;;
17363;SDS011;8799;43.594;13.526;2022-08-19T03:28:17;9.10;;;1.97;;
17363;SDS011;8799;43.594;13.526;2022-08-19T03:30:54;5.57;;;1.83;;
17363;SDS011;8799;43.594;13.526;2022-08-19T03:33:23;19.57;;;1.87;;
17363;SDS011;8799;43.594;13.526;2022-08-19T03:36:08;6.13;;;2.00;;
17363;SDS011;8799;43.594;13.526;2022-08-19T03:38:38;11.10;;;2.40;;
17363;SDS011;8799;43.594;13.526;2022-08-19T03:41:09;6.50;;;2.10;;
17363;SDS011;8799;43.594;13.526;2022-08-19T03:43:40;9.17;;;2.13;;
17363;SDS011;8799;43.594;13.526;2022-08-19T03:46:10;9.30;;;2.03;;
17363;SDS011;8799;43.594;13.526;2022-08-19T03:48:40;8.70;;;2.13;;
17363;SDS011;8799;43.594;13.526;2022-08-19T03:51:15;10.00;;;2.17;;
17363;SDS011;8799;43.594;13.526;2022-08-19T03:53:44;10.87;;;2.10;;
17363;SDS011;8799;43.594;13.526;2022-08-19T03:56:14;7.07;;;1.67;;
17363;SDS011;8799;43.594;13.526;2022-08-19T03:58:44;7.73;;;2.10;;
17363;SDS011;8799;43.594;13.526;2022-08-19T04:01:14;12.77;;;1.83;;
17363;SDS011;8799;43.594;13.526;2022-08-19T04:03:43;9.87;;;2.80;;
17363;SDS011;8799;43.594;13.526;2022-08-19T04:06:15;5.97;;;1.90;;
17363;SDS011;8799;43.594;13.526;2022-08-19T04:08:46;6.43;;;1.57;;
17363;SDS011;8799;43.594;13.526;2022-08-19T04:11:18;5.47;;;1.63;;
17363;SDS011;8799;43.594;13.526;2022-08-19T04:13:49;10.80;;;1.90;;
17363;SDS011;8799;43.594;13.526;2022-08-19T04:16:19;4.80;;;1.70;;
17363;SDS011;8799;43.594;13.526;2022-08-19T04:18:48;8.53;;;1.50;;
17363;SDS011;8799;43.594;13.526;2022-08-19T04:21:17;12.10;;;2.17;;
17363;SDS011;8799;43.594;13.526;2022-08-19T04:23:47;14.63;;;1.93;;
17363;SDS011;8799;43.594;13.526;2022-08-19T04:26:15;5.77;;;2.10;;
17363;SDS011;8799;43.594;13.526;2022-08-19T04:28:43;9.60;;;1.93;;
17363;SDS011;8799;43.594;13.526;2022-08-19T04:31:14;5.33;;;1.60;;
17363;SDS011;8799;43.594;13.526;2022-08-19T04:33:43;5.87;;;1.97;;
17363;SDS011;8799;43.594;13.526;2022-08-19T04:36:15;6.27;;;1.77;;
17363;SDS011;8799;43.594;13.526;2022-08-19T04:38:45;13.10;;;2.60;;
17363;SDS011;8799;43.594;13.526;2022-08-19T04:41:13;11.67;;;2.30;;
17363;SDS011;8799;43.594;13.526;2022-08-19T04:43:57;9.20;;;2.40;;
17363;SDS011;8799;43.594;13.526;2022-08-19T04:46:27;8.50;;;2.30;;
17363;SDS011;8799;43.594;13.526;2022-08-19T04:48:56;10.30;;;2.30;;
17363;SDS011;8799;43.594;13.526;2022-08-19T04:51:24;6.90;;;2.13;;
17363;SDS011;8799;43.594;13.526;2022-08-19T04:53:55;8.93;;;2.07;;
17363;SDS011;8799;43.594;13.526;2022-08-19T04:56:24;9.80;;;2.00;;
17363;SDS011;8799;43.594;13.526;2022-08-19T04:58:52;9.33;;;2.07;;
17363;SDS011;8799;43.594;13.526;2022-08-19T05:01:21;7.77;;;2.20;;
17363;SDS011;8799;43.594;13.526;2022-08-19T05:03:52;13.63;;;2.53;;
17363;SDS011;8799;43.594;13.526;2022-08-19T05:06:24;10.83;;;1.80;;
17363;SDS011;8799;43.594;13.526;2022-08-19T05:08:52;6.60;;;1.73;;
17363;SDS011;8799;43.594;13.526;2022-08-19T05:11:21;5.83;;;2.00;;
17363;SDS011;8799;43.594;13.526;2022-08-19T05:14:01;12.43;;;2.73;;
17363;SDS011;8799;43.594;13.526;2022-08-19T05:16:29;9.60;;;2.93;;
17363;SDS011;8799;43.594;13.526;2022-08-19T05:18:59;13.93;;;2.27;;
17363;SDS011;8799;43.594;13.526;2022-08-19T05:21:43;8.43;;;2.30;;
17363;SDS011;8799;43.594;13.526;2022-08-19T05:24:29;14.03;;;2.30;;
17363;SDS011;8799;43.594;13.526;2022-08-19T05:26:59;11.90;;;2.30;;
17363;SDS011;8799;43.594;13.526;2022-08-19T05:29:29;9.13;;;2.07;;
17363;SDS011;8799;43.594;13.526;2022-08-19T05:31:58;13.93;;;2.17;;
17363;SDS011;8799;43.594;13.526;2022-08-19T05:34:27;9.83;;;2.30;;
17363;SDS011;8799;43.594;13.526;2022-08-19T05:36:57;8.43;;;2.20;;
17363;SDS011;8799;43.594;13.526;2022-08-19T05:39:27;11.10;;;1.90;;
17363;SDS011;8799;43.594;13.526;2022-08-19T05:42:00;8.87;;;2.03;;
17363;SDS011;8799;43.594;13.526;2022-08-19T05:44:31;9.77;;;2.33;;
17363;SDS011;8799;43.594;13.526;2022-08-19T05:47:00;8.13;;;2.33;;
17363;SDS011;8799;43.594;13.526;2022-08-19T05:49:32;6.73;;;2.03;;
17363;SDS011;8799;43.594;13.526;2022-08-19T05:52:01;6.57;;;1.70;;
17363;SDS011;8799;43.594;13.526;2022-08-19T05:54:30;6.53;;;1.70;;
17363;SDS011;8799;43.594;13.526;2022-08-19T05:56:59;4.73;;;1.63;;
17363;SDS011;8799;43.594;13.526;2022-08-19T05:59:27;4.17;;;1.43;;
17363;SDS011;8799;43.594;13.526;2022-08-19T06:01:56;10.00;;;3.00;;
17363;SDS011;8799;43.594;13.526;2022-08-19T06:04:25;10.77;;;2.17;;
17363;SDS011;8799;43.594;13.526;2022-08-19T06:06:56;6.03;;;1.97;;
17363;SDS011;8799;43.594;13.526;2022-08-19T06:09:24;9.27;;;1.73;;
17363;SDS011;8799;43.594;13.526;2022-08-19T06:11:52;11.50;;;2.00;;
17363;SDS011;8799;43.594;13.526;2022-08-19T06:14:25;10.03;;;2.17;;
17363;SDS011;8799;43.594;13.526;2022-08-19T06:16:55;6.83;;;2.23;;
17363;SDS011;8799;43.594;13.526;2022-08-19T06:19:25;5.97;;;1.77;;
17363;SDS011;8799;43.594;13.526;2022-08-19T06:22:03;12.67;;;2.60;;
17363;SDS011;8799;43.594;13.526;2022-08-19T06:24:31;7.47;;;2.33;;
17363;SDS011;8799;43.594;13.526;2022-08-19T06:27:00;8.80;;;2.27;;
17363;SDS011;8799;43.594;13.526;2022-08-19T06:29:30;8.23;;;1.80;;
17363;SDS011;8799;43.594;13.526;2022-08-19T06:31:59;7.17;;;1.90;;
17363;SDS011;8799;43.594;13.526;2022-08-19T06:34:29;7.77;;;1.80;;
17363;SDS011;8799;43.594;13.526;2022-08-19T06:37:00;11.23;;;2.50;;
17363;SDS011;8799;43.594;13.526;2022-08-19T06:39:29;6.00;;;2.00;;
17363;SDS011;8799;43.594;13.526;2022-08-19T06:42:04;5.33;;;1.87;;
17363;SDS011;8799;43.594;13.526;2022-08-19T06:44:35;11.67;;;2.17;;
17363;SDS011;8799;43.594;13.526;2022-08-19T06:47:04;6.83;;;2.00;;
17363;SDS011;8799;43.594;13.526;2022-08-19T06:49:35;10.53;;;2.23;;
17363;SDS011;8799;43.594;13.526;2022-08-19T06:52:05;9.53;;;2.23;;
17363;SDS011;8799;43.594;13.526;2022-08-19T06:54:37;10.33;;;2.53;;
17363;SDS011;8799;43.594;13.526;2022-08-19T06:57:06;10.47;;;2.80;;
17363;SDS011;8799;43.594;13.526;2022-08-19T06:59:40;9.40;;;2.40;;
17363;SDS011;8799;43.594;13.526;2022-08-19T07:02:07;13.10;;;3.27;;
17363;SDS011;8799;43.594;13.526;2022-08-19T07:04:36;12.27;;;3.33;;
17363;SDS011;8799;43.594;13.526;2022-08-19T07:07:05;14.80;;;3.20;;
17363;SDS011;8799;43.594;13.526;2022-08-19T07:09:38;12.57;;;3.23;;
17363;SDS011;8799;43.594;13.526;2022-08-19T07:12:09;11.87;;;3.03;;
17363;SDS011;8799;43.594;13.526;2022-08-19T07:14:39;8.53;;;2.27;;
17363;SDS011;8799;43.594;13.526;2022-08-19T07:17:07;13.80;;;2.83;;
17363;SDS011;8799;43.594;13.526;2022-08-19T07:19:37;6.13;;;2.07;;
17363;SDS011;8799;43.594;13.526;2022-08-19T07:22:09;10.30;;;2.40;;
17363;SDS011;8799;43.594;13.526;2022-08-19T07:24:37;8.10;;;2.17;;
17363;SDS011;8799;43.594;13.526;2022-08-19T07:27:05;5.03;;;2.00;;
17363;SDS011;8799;43.594;13.526;2022-08-19T07:29:35;18.03;;;1.90;;
17363;SDS011;8799;43.594;13.526;2022-08-19T07:32:04;7.70;;;2.47;;
17363;SDS011;8799;43.594;13.526;2022-08-19T07:34:32;13.17;;;2.77;;
17363;SDS011;8799;43.594;13.526;2022-08-19T07:37:03;8.07;;;2.27;;
17363;SDS011;8799;43.594;13.526;2022-08-19T07:39:34;11.40;;;2.03;;
17363;SDS011;8799;43.594;13.526;2022-08-19T07:42:04;15.03;;;2.60;;
17363;SDS011;8799;43.594;13.526;2022-08-19T07:44:34;10.13;;;2.47;;
17363;SDS011;8799;43.594;13.526;2022-08-19T07:47:02;7.87;;;1.90;;
17363;SDS011;8799;43.594;13.526;2022-08-19T07:49:31;11.90;;;2.90;;
17363;SDS011;8799;43.594;13.526;2022-08-19T07:52:03;5.67;;;1.83;;
17363;SDS011;8799;43.594;13.526;2022-08-19T07:54:36;10.13;;;2.30;;
17363;SDS011;8799;43.594;13.526;2022-08-19T07:57:05;11.03;;;3.20;;
17363;SDS011;8799;43.594;13.526;2022-08-19T07:59:34;11.80;;;2.37;;
17363;SDS011;8799;43.594;13.526;2022-08-19T08:02:02;7.47;;;2.13;;
17363;SDS011;8799;43.594;13.526;2022-08-19T08:04:34;8.17;;;2.23;;
17363;SDS011;8799;43.594;13.526;2022-08-19T08:07:19;10.37;;;2.80;;
17363;SDS011;8799;43.594;13.526;2022-08-19T08:10:16;11.93;;;2.60;;
17363;SDS011;8799;43.594;13.526;2022-08-19T08:12:45;6.13;;;2.10;;
17363;SDS011;8799;43.594;13.526;2022-08-19T08:15:17;6.73;;;2.30;;
17363;SDS011;8799;43.594;13.526;2022-08-19T08:17:45;9.03;;;2.47;;
17363;SDS011;8799;43.594;13.526;2022-08-19T08:20:14;8.77;;;2.53;;
17363;SDS011;8799;43.594;13.526;2022-08-19T08:22:42;9.90;;;2.97;;
17363;SDS011;8799;43.594;13.526;2022-08-19T08:25:30;12.60;;;3.07;;
17363;SDS011;8799;43.594;13.526;2022-08-19T08:27:58;9.90;;;2.80;;
17363;SDS011;8799;43.594;13.526;2022-08-19T08:30:27;15.73;;;2.53;;
17363;SDS011;8799;43.594;13.526;2022-08-19T08:32:55;10.57;;;2.33;;
17363;SDS011;8799;43.594;13.526;2022-08-19T08:35:23;7.63;;;2.10;;
17363;SDS011;8799;43.594;13.526;2022-08-19T08:37:52;12.23;;;2.50;;
17363;SDS011;8799;43.594;13.526;2022-08-19T08:40:23;5.67;;;2.10;;
17363;SDS011;8799;43.594;13.526;2022-08-19T08:43:02;7.10;;;2.37;;
17363;SDS011;8799;43.594;13.526;2022-08-19T08:45:38;6.20;;;2.20;;
17363;SDS011;8799;43.594;13.526;2022-08-19T08:48:18;6.17;;;1.93;;
17363;SDS011;8799;43.594;13.526;2022-08-19T08:50:51;4.73;;;2.00;;
17363;SDS011;8799;43.594;13.526;2022-08-19T08:53:21;10.60;;;2.47;;
17363;SDS011;8799;43.594;13.526;2022-08-19T08:55:53;6.57;;;2.30;;
17363;SDS011;8799;43.594;13.526;2022-08-19T08:58:24;10.60;;;2.47;;
17363;SDS011;8799;43.594;13.526;2022-08-19T09:00:54;8.17;;;2.47;;
17363;SDS011;8799;43.594;13.526;2022-08-19T09:03:24;6.60;;;2.40;;
17363;SDS011;8799;43.594;13.526;2022-08-19T09:05:56;12.97;;;2.33;;
17363;SDS011;8799;43.594;13.526;2022-08-19T09:08:32;9.67;;;2.70;;
17363;SDS011;8799;43.594;13.526;2022-08-19T09:11:09;8.00;;;2.40;;
17363;SDS011;8799;43.594;13.526;2022-08-19T09:13:42;7.33;;;2.13;;
17363;SDS011;8799;43.594;13.526;2022-08-19T09:16:20;8.53;;;2.60;;
17363;SDS011;8799;43.594;13.526;2022-08-19T09:18:53;6.90;;;2.37;;
17363;SDS011;8799;43.594;13.526;2022-08-19T09:21:25;6.57;;;2.10;;
17363;SDS011;8799;43.594;13.526;2022-08-19T09:23:55;9.83;;;2.47;;
17363;SDS011;8799;43.594;13.526;2022-08-19T09:26:26;10.57;;;2.90;;
17363;SDS011;8799;43.594;13.526;2022-08-19T09:28:54;8.83;;;2.33;;
17363;SDS011;8799;43.594;13.526;2022-08-19T09:31:23;4.07;;;1.90;;
17363;SDS011;8799;43.594;13.526;2022-08-19T09:33:53;8.30;;;2.30;;
17363;SDS011;8799;43.594;13.526;2022-08-19T09:36:23;4.43;;;2.33;;
17363;SDS011;8799;43.594;13.526;2022-08-19T09:38:55;7.17;;;2.40;;
17363;SDS011;8799;43.594;13.526;2022-08-19T09:41:23;7.70;;;2.30;;
17363;SDS011;8799;43.594;13.526;2022-08-19T09:43:58;12.20;;;2.40;;
17363;SDS011;8799;43.594;13.526;2022-08-19T09:46:27;8.13;;;2.27;;
17363;SDS011;8799;43.594;13.526;2022-08-19T09:49:00;8.23;;;2.43;;
17363;SDS011;8799;43.594;13.526;2022-08-19T09:51:29;3.97;;;1.97;;
17363;SDS011;8799;43.594;13.526;2022-08-19T09:53:58;7.33;;;2.10;;
17363;SDS011;8799;43.594;13.526;2022-08-19T09:56:28;4.33;;;1.87;;
17363;SDS011;8799;43.594;13.526;2022-08-19T09:58:57;4.70;;;2.00;;
17363;SDS011;8799;43.594;13.526;2022-08-19T10:01:26;8.53;;;2.10;;
17363;SDS011;8799;43.594;13.526;2022-08-19T10:04:00;15.03;;;2.50;;
17363;SDS011;8799;43.594;13.526;2022-08-19T10:06:29;4.57;;;2.10;;
17363;SDS011;8799;43.594;13.526;2022-08-19T10:08:58;6.50;;;2.07;;
17363;SDS011;8799;43.594;13.526;2022-08-19T10:11:27;8.00;;;2.20;;
17363;SDS011;8799;43.594;13.526;2022-08-19T10:13:55;7.70;;;2.23;;
17363;SDS011;8799;43.594;13.526;2022-08-19T10:16:23;7.93;;;2.30;;
17363;SDS011;8799;43.594;13.526;2022-08-19T10:18:52;7.23;;;2.27;;
17363;SDS011;8799;43.594;13.526;2022-08-19T10:21:21;8.00;;;2.20;;
17363;SDS011;8799;43.594;13.526;2022-08-19T10:23:52;6.70;;;1.80;;
17363;SDS011;8799;43.594;13.526;2022-08-19T10:26:26;8.13;;;2.00;;
17363;SDS011;8799;43.594;13.526;2022-08-19T10:29:00;7.17;;;2.20;;
17363;SDS011;8799;43.594;13.526;2022-08-19T10:31:30;10.80;;;2.20;;
17363;SDS011;8799;43.594;13.526;2022-08-19T10:34:00;10.83;;;2.97;;
17363;SDS011;8799;43.594;13.526;2022-08-19T10:36:28;6.07;;;2.20;;
17363;SDS011;8799;43.594;13.526;2022-08-19T10:39:01;7.53;;;2.57;;
17363;SDS011;8799;43.594;13.526;2022-08-19T10:41:33;8.87;;;2.33;;
17363;SDS011;8799;43.594;13.526;2022-08-19T10:44:04;8.83;;;2.10;;
17363;SDS011;8799;43.594;13.526;2022-08-19T10:46:35;6.67;;;2.00;;
17363;SDS011;8799;43.594;13.526;2022-08-19T10:49:06;8.47;;;2.10;;
17363;SDS011;8799;43.594;13.526;2022-08-19T10:51:36;5.70;;;2.03;;
17363;SDS011;8799;43.594;13.526;2022-08-19T10:54:21;9.17;;;2.70;;
17363;SDS011;8799;43.594;13.526;2022-08-19T10:57:10;7.67;;;2.33;;
17363;SDS011;8799;43.594;13.526;2022-08-19T10:59:37;5.77;;;1.87;;
17363;SDS011;8799;43.594;13.526;2022-08-19T11:02:07;11.60;;;2.50;;
17363;SDS011;8799;43.594;13.526;2022-08-19T11:04:37;12.93;;;2.30;;
17363;SDS011;8799;43.594;13.526;2022-08-19T11:07:06;6.60;;;1.90;;
17363;SDS011;8799;43.594;13.526;2022-08-19T11:09:36;8.67;;;2.30;;
17363;SDS011;8799;43.594;13.526;2022-08-19T11:12:05;4.80;;;1.63;;
17363;SDS011;8799;43.594;13.526;2022-08-19T11:14:42;5.00;;;1.50;;
17363;SDS011;8799;43.594;13.526;2022-08-19T11:17:10;5.50;;;1.87;;
17363;SDS011;8799;43.594;13.526;2022-08-19T11:19:42;4.20;;;1.33;;
17363;SDS011;8799;43.594;13.526;2022-08-19T11:22:10;12.53;;;1.90;;
17363;SDS011;8799;43.594;13.526;2022-08-19T11:24:40;7.30;;;1.87;;
17363;SDS011;8799;43.594;13.526;2022-08-19T11:27:09;4.80;;;1.63;;
17363;SDS011;8799;43.594;13.526;2022-08-19T11:29:38;4.13;;;1.60;;
17363;SDS011;8799;43.594;13.526;2022-08-19T11:32:09;4.77;;;1.77;;
17363;SDS011;8799;43.594;13.526;2022-08-19T11:34:38;9.20;;;2.07;;
17363;SDS011;8799;43.594;13.526;2022-08-19T11:37:06;6.00;;;1.87;;
17363;SDS011;8799;43.594;13.526;2022-08-19T11:39:35;5.43;;;1.80;;
17363;SDS011;8799;43.594;13.526;2022-08-19T11:42:06;9.27;;;1.90;;
17363;SDS011;8799;43.594;13.526;2022-08-19T11:44:47;8.97;;;2.23;;
17363;SDS011;8799;43.594;13.526;2022-08-19T11:47:17;6.37;;;2.07;;
17363;SDS011;8799;43.594;13.526;2022-08-19T11:49:55;6.83;;;1.93;;
17363;SDS011;8799;43.594;13.526;2022-08-19T11:52:23;10.33;;;2.10;;
17363;SDS011;8799;43.594;13.526;2022-08-19T11:54:51;7.80;;;2.33;;
17363;SDS011;8799;43.594;13.526;2022-08-19T11:57:22;4.93;;;1.70;;
17363;SDS011;8799;43.594;13.526;2022-08-19T11:59:51;6.03;;;1.83;;
17363;SDS011;8799;43.594;13.526;2022-08-19T12:02:21;8.30;;;1.93;;
17363;SDS011;8799;43.594;13.526;2022-08-19T12:04:49;8.00;;;2.07;;
17363;SDS011;8799;43.594;13.526;2022-08-19T12:07:16;7.83;;;2.10;;
17363;SDS011;8799;43.594;13.526;2022-08-19T12:09:45;8.47;;;2.13;;
17363;SDS011;8799;43.594;13.526;2022-08-19T12:12:13;9.80;;;2.20;;
17363;SDS011;8799;43.594;13.526;2022-08-19T12:14:41;9.50;;;2.00;;
17363;SDS011;8799;43.594;13.526;2022-08-19T12:17:08;8.50;;;1.90;;
17363;SDS011;8799;43.594;13.526;2022-08-19T12:19:38;10.70;;;1.90;;
17363;SDS011;8799;43.594;13.526;2022-08-19T12:22:06;7.80;;;2.00;;
17363;SDS011;8799;43.594;13.526;2022-08-19T12:24:34;11.67;;;2.60;;
17363;SDS011;8799;43.594;13.526;2022-08-19T12:27:02;5.57;;;2.17;;
17363;SDS011;8799;43.594;13.526;2022-08-19T12:29:30;9.23;;;2.20;;
17363;SDS011;8799;43.594;13.526;2022-08-19T12:31:58;8.63;;;2.20;;
17363;SDS011;8799;43.594;13.526;2022-08-19T12:34:27;7.97;;;1.70;;
17363;SDS011;8799;43.594;13.526;2022-08-19T12:36:58;9.27;;;1.73;;
17363;SDS011;8799;43.594;13.526;2022-08-19T12:39:27;6.70;;;1.73;;
17363;SDS011;8799;43.594;13.526;2022-08-19T12:41:56;7.47;;;1.90;;
17363;SDS011;8799;43.594;13.526;2022-08-19T12:44:24;11.27;;;1.90;;
17363;SDS011;8799;43.594;13.526;2022-08-19T12:46:52;12.60;;;2.10;;
17363;SDS011;8799;43.594;13.526;2022-08-19T12:49:20;9.27;;;2.00;;
17363;SDS011;8799;43.594;13.526;2022-08-19T12:51:48;11.80;;;2.00;;
17363;SDS011;8799;43.594;13.526;2022-08-19T12:54:18;9.27;;;2.50;;
17363;SDS011;8799;43.594;13.526;2022-08-19T12:56:46;7.27;;;1.97;;
17363;SDS011;8799;43.594;13.526;2022-08-19T12:59:15;9.27;;;1.83;;
17363;SDS011;8799;43.594;13.526;2022-08-19T13:01:43;12.63;;;2.30;;
17363;SDS011;8799;43.594;13.526;2022-08-19T13:04:11;12.33;;;2.40;;
17363;SDS011;8799;43.594;13.526;2022-08-19T13:06:39;6.80;;;2.07;;
17363;SDS011;8799;43.594;13.526;2022-08-19T13:09:08;11.50;;;1.97;;
17363;SDS011;8799;43.594;13.526;2022-08-19T13:11:37;6.00;;;1.83;;
17363;SDS011;8799;43.594;13.526;2022-08-19T13:14:04;6.30;;;1.83;;
17363;SDS011;8799;43.594;13.526;2022-08-19T13:16:32;7.73;;;1.73;;
17363;SDS011;8799;43.594;13.526;2022-08-19T13:19:00;10.97;;;2.23;;
17363;SDS011;8799;43.594;13.526;2022-08-19T13:21:30;7.70;;;2.47;;
17363;SDS011;8799;43.594;13.526;2022-08-19T13:24:01;11.13;;;2.30;;
17363;SDS011;8799;43.594;13.526;2022-08-19T13:26:29;6.77;;;2.13;;
17363;SDS011;8799;43.594;13.526;2022-08-19T13:28:58;4.97;;;1.70;;
17363;SDS011;8799;43.594;13.526;2022-08-19T13:31:43;5.53;;;1.90;;
17363;SDS011;8799;43.594;13.526;2022-08-19T13:34:39;7.80;;;1.90;;
17363;SDS011;8799;43.594;13.526;2022-08-19T13:37:08;12.90;;;1.97;;
17363;SDS011;8799;43.594;13.526;2022-08-19T13:39:36;7.43;;;1.43;;
17363;SDS011;8799;43.594;13.526;2022-08-19T13:42:04;14.23;;;1.93;;
17363;SDS011;8799;43.594;13.526;2022-08-19T13:44:33;9.60;;;2.07;;
17363;SDS011;8799;43.594;13.526;2022-08-19T13:47:02;9.13;;;2.20;;
17363;SDS011;8799;43.594;13.526;2022-08-19T13:49:32;10.10;;;2.10;;
17363;SDS011;8799;43.594;13.526;2022-08-19T13:52:01;10.50;;;2.27;;
17363;SDS011;8799;43.594;13.526;2022-08-19T13:54:30;10.87;;;1.97;;
17363;SDS011;8799;43.594;13.526;2022-08-19T13:56:58;9.40;;;1.63;;
17363;SDS011;8799;43.594;13.526;2022-08-19T13:59:26;9.20;;;2.67;;
17363;SDS011;8799;43.594;13.526;2022-08-19T14:01:58;10.30;;;2.10;;
17363;SDS011;8799;43.594;13.526;2022-08-19T14:04:26;9.80;;;2.50;;
17363;SDS011;8799;43.594;13.526;2022-08-19T14:06:54;9.30;;;2.10;;
17363;SDS011;8799;43.594;13.526;2022-08-19T14:09:21;11.17;;;2.27;;
17363;SDS011;8799;43.594;13.526;2022-08-19T14:11:49;7.67;;;2.00;;
17363;SDS011;8799;43.594;13.526;2022-08-19T14:14:17;6.80;;;1.90;;
17363;SDS011;8799;43.594;13.526;2022-08-19T14:16:45;5.67;;;1.87;;
17363;SDS011;8799;43.594;13.526;2022-08-19T14:19:15;6.23;;;1.90;;
17363;SDS011;8799;43.594;13.526;2022-08-19T14:21:45;4.93;;;1.80;;
17363;SDS011;8799;43.594;13.526;2022-08-19T14:24:12;9.60;;;2.00;;
17363;SDS011;8799;43.594;13.526;2022-08-19T14:26:40;5.67;;;2.27;;
17363;SDS011;8799;43.594;13.526;2022-08-19T14:29:08;8.23;;;2.10;;
17363;SDS011;8799;43.594;13.526;2022-08-19T14:31:36;9.10;;;2.30;;
17363;SDS011;8799;43.594;13.526;2022-08-19T14:34:05;6.90;;;2.40;;
17363;SDS011;8799;43.594;13.526;2022-08-19T14:36:36;8.32;;;2.53;;
17363;SDS011;8799;43.594;13.526;2022-08-19T14:39:07;6.60;;;2.20;;
17363;SDS011;8799;43.594;13.526;2022-08-19T14:41:35;6.90;;;1.80;;
17363;SDS011;8799;43.594;13.526;2022-08-19T14:44:03;7.33;;;1.87;;
17363;SDS011;8799;43.594;13.526;2022-08-19T14:46:31;7.67;;;2.33;;
17363;SDS011;8799;43.594;13.526;2022-08-19T14:48:58;5.63;;;1.90;;
17363;SDS011;8799;43.594;13.526;2022-08-19T14:51:26;5.77;;;1.90;;
17363;SDS011;8799;43.594;13.526;2022-08-19T14:53:56;4.17;;;1.73;;
17363;SDS011;8799;43.594;13.526;2022-08-19T14:56:25;3.30;;;1.50;;
17363;SDS011;8799;43.594;13.526;2022-08-19T14:58:54;3.67;;;1.50;;
17363;SDS011;8799;43.594;13.526;2022-08-19T15:01:24;2.17;;;1.23;;